Alton, Kansas
Current Conditions -  °F | °C
As of 2:53 PM on Tuesday 21 Oct 2014 (Local Time) from KRSL Reporting Station
Clear Clear  
Wind Chill: 78°   Ceiling: Unl
Heat Index: 79°   Visibility: 10mi
Dew Point: 60°   Wind: 13mph
Humidity: 54%   Direction: 170°S
Pressure: 29.99"   Gusts: 21mph
Location:  39.47°N, 98.95°W
Report Text: KRSL 211953Z AUTO 17011G18KT 10SM CLR 26/16 A2999 RMK AO2 SLP149 T02560156
Loading
Personal Weather Stations






























Interactive Weather Map
Tropical Storm Tracking
New forecast layout! Learn more

10-Day Weather Forecast

Advertisements
Track Severe Weather on mobile